Main page
METAR-TAF:

METAR-TAF

Airports :

Meiringen Air Base

Meiringen, Switzerland

latitude: 46-44-25N, longitude: 8-06-36E, elevation: 577 m

Current weather observation

The report was made 37 minutes ago, at 23:20 UTC
Wind 2 kt from variable directions
Temperature 0°C
Humidity 100%
Pressure 1006 hPa
Visibility: 5000 m
Few clouds at a height of 200 ft
Broken clouds at a height of 1700 ft
Overcast at a height of 6900 ft

METAR: LSMM 172320Z AUTO VRB02KT 5000NDV FEW002 BKN017 OVC069 M00/M00 Q1006 RMK

Time: 00:57 (23:57 UTC)


TAF: missing

Weather observations and forecasts of more than 4000 airports (METAR and TAF reports).

The available stations are represented by yellow and red dots on the map.

Hover mouse over dot to see the name of the station.

Then click to see weather observations and forecasts.

To change the map : click on the green buttons with a black cross to zoom in, on the green button with a dash to zoom out, or on the green arrows for adjacent maps.


METAR-TAF: